createdAt,value
2019-03-27T00:02:27.378Z,2.40
2019-03-27T00:04:57.525Z,1.67
2019-03-27T00:07:28.735Z,1.95
2019-03-27T00:09:58.902Z,2.02
2019-03-27T00:12:29.059Z,2.45
2019-03-27T00:15:12.198Z,2.02
2019-03-27T00:17:31.139Z,1.75
2019-03-27T00:20:02.915Z,2.12
2019-03-27T00:22:33.133Z,1.52
2019-03-27T00:25:03.372Z,1.52
2019-03-27T00:27:33.539Z,2.27
2019-03-27T00:30:04.214Z,1.55
2019-03-27T00:32:35.591Z,1.67
2019-03-27T00:35:06.203Z,2.02
2019-03-27T00:37:37.520Z,2.33
2019-03-27T00:40:10.944Z,2.00
2019-03-27T00:42:41.105Z,2.25
2019-03-27T00:45:25.467Z,1.45
2019-03-27T00:47:43.503Z,1.70
2019-03-27T00:50:14.762Z,2.00
2019-03-27T00:52:44.921Z,1.60
2019-03-27T00:55:15.259Z,2.42
2019-03-27T00:57:45.424Z,1.90
2019-03-27T01:00:24.587Z,2.80
2019-03-27T01:02:57.908Z,0.95
2019-03-27T01:05:29.243Z,1.35
2019-03-27T01:07:59.411Z,1.20
2019-03-27T01:10:29.572Z,1.65
2019-03-27T01:13:01.284Z,2.15
2019-03-27T01:15:39.765Z,2.20
2019-03-27T01:18:06.195Z,1.67
2019-03-27T01:20:38.107Z,1.47
2019-03-27T01:23:09.332Z,2.20
2019-03-27T01:25:39.529Z,2.62
2019-03-27T01:28:09.710Z,1.30
2019-03-27T01:30:39.991Z,2.45
2019-03-27T01:33:11.258Z,1.40
2019-03-27T01:35:41.497Z,1.85
2019-03-27T01:38:11.666Z,2.00
2019-03-27T01:40:41.811Z,1.90
2019-03-27T01:43:11.978Z,2.35
2019-03-27T01:45:53.101Z,2.22
2019-03-27T01:48:19.043Z,2.08
2019-03-27T01:50:49.302Z,2.40
2019-03-27T01:53:19.476Z,1.67
2019-03-27T01:55:52.586Z,1.32
2019-03-27T01:58:23.848Z,1.65
2019-03-27T02:00:53.997Z,1.80
2019-03-27T02:03:24.144Z,1.52
2019-03-27T02:05:55.587Z,2.62
2019-03-27T02:08:25.750Z,2.25
2019-03-27T02:10:56.060Z,2.55
2019-03-27T02:13:26.193Z,1.80
2019-03-27T02:16:06.343Z,1.70
2019-03-27T02:18:28.176Z,1.62
2019-03-27T02:20:58.319Z,1.00
2019-03-27T02:23:28.452Z,1.90
2019-03-27T02:26:00.604Z,1.17
2019-03-27T02:28:30.762Z,1.82
2019-03-27T02:31:01.866Z,2.20
2019-03-27T02:33:33.134Z,1.62
2019-03-27T02:36:03.407Z,1.75
2019-03-27T02:38:33.922Z,2.40
2019-03-27T02:41:04.061Z,1.45
2019-03-27T02:43:34.354Z,2.33
2019-03-27T02:46:05.429Z,1.60
2019-03-27T02:48:35.579Z,1.90
2019-03-27T02:51:05.850Z,1.40
2019-03-27T02:53:36.140Z,1.85
2019-03-27T02:56:08.105Z,1.70
2019-03-27T02:58:38.235Z,1.80
2019-03-27T03:01:08.453Z,1.62
2019-03-27T03:03:38.608Z,2.52
2019-03-27T03:06:08.830Z,2.33
2019-03-27T03:08:38.968Z,2.22
2019-03-27T03:11:09.118Z,1.55
2019-03-27T03:13:42.275Z,2.42
2019-03-27T03:16:12.566Z,1.90
2019-03-27T03:18:44.376Z,1.67
2019-03-27T03:21:14.539Z,1.40
2019-03-27T03:23:47.436Z,1.40
2019-03-27T03:26:19.301Z,1.75
2019-03-27T03:28:49.612Z,1.90
2019-03-27T03:31:20.018Z,2.17
2019-03-27T03:33:50.277Z,2.17
2019-03-27T03:36:22.416Z,1.80
2019-03-27T03:38:54.186Z,2.02
2019-03-27T03:41:24.335Z,0.90
2019-03-27T03:43:54.469Z,1.70
2019-03-27T03:46:24.673Z,4.10
2019-03-27T03:48:54.888Z,1.75
2019-03-27T03:51:25.185Z,1.30
2019-03-27T03:53:55.751Z,3.30
2019-03-27T03:56:27.095Z,1.55
2019-03-27T03:58:58.331Z,1.55
2019-03-27T04:01:30.461Z,3.02
2019-03-27T04:04:02.960Z,2.12
2019-03-27T04:06:33.207Z,1.50
2019-03-27T04:09:03.728Z,1.55
2019-03-27T04:11:33.888Z,3.08
2019-03-27T04:14:04.129Z,1.52
2019-03-27T04:16:34.394Z,1.85
2019-03-27T04:19:04.550Z,1.70
2019-03-27T04:21:34.849Z,1.57
2019-03-27T04:24:05.066Z,1.37
2019-03-27T04:26:35.347Z,1.15
2019-03-27T04:29:05.598Z,1.60
2019-03-27T04:31:36.719Z,1.22
2019-03-27T04:34:06.874Z,1.15
2019-03-27T04:36:37.024Z,1.60
2019-03-27T04:39:07.378Z,2.15
2019-03-27T04:41:37.545Z,1.55
2019-03-27T04:44:07.695Z,1.32
2019-03-27T04:46:39.235Z,2.33
2019-03-27T04:49:09.321Z,1.30
2019-03-27T04:51:39.456Z,1.75
2019-03-27T04:54:09.600Z,1.67
2019-03-27T04:56:39.753Z,1.90
2019-03-27T04:59:09.899Z,1.80
2019-03-27T05:01:40.060Z,1.32
2019-03-27T05:04:10.214Z,1.60
2019-03-27T05:06:42.956Z,2.77
2019-03-27T05:09:13.172Z,1.80
2019-03-27T05:11:43.332Z,2.25
2019-03-27T05:14:13.470Z,2.08
2019-03-27T05:16:43.717Z,1.30
2019-03-27T05:19:15.414Z,2.45
2019-03-27T05:21:45.664Z,1.55
2019-03-27T05:24:17.488Z,2.47
2019-03-27T05:26:47.689Z,1.50
2019-03-27T05:29:17.862Z,2.05
2019-03-27T05:31:50.714Z,1.60
2019-03-27T05:34:22.943Z,1.40
2019-03-27T05:36:57.339Z,1.35
2019-03-27T05:39:31.523Z,1.55
2019-03-27T05:42:01.700Z,1.65
2019-03-27T05:44:32.810Z,1.62
2019-03-27T05:47:03.010Z,2.00
2019-03-27T05:49:33.170Z,2.02
2019-03-27T05:52:12.407Z,1.42
2019-03-27T05:54:42.570Z,1.90
2019-03-27T05:57:12.774Z,1.57
2019-03-27T05:59:46.832Z,1.50
2019-03-27T06:02:18.615Z,2.77
2019-03-27T06:04:50.344Z,2.25
2019-03-27T06:07:20.624Z,1.80
2019-03-27T06:09:52.397Z,1.57
2019-03-27T06:12:22.528Z,1.70
2019-03-27T06:14:52.675Z,1.80
2019-03-27T06:17:22.830Z,1.37
2019-03-27T06:19:53.006Z,2.50
2019-03-27T06:22:24.994Z,2.45
2019-03-27T06:24:56.272Z,3.90
2019-03-27T06:27:26.930Z,2.95
2019-03-27T06:29:57.068Z,2.08
2019-03-27T06:32:27.228Z,1.77
2019-03-27T06:34:57.381Z,2.45
2019-03-27T06:37:27.830Z,2.33
2019-03-27T06:39:58.158Z,4.35
2019-03-27T06:42:28.375Z,2.05
2019-03-27T06:44:59.215Z,2.50
2019-03-27T06:47:31.886Z,3.12
2019-03-27T06:50:02.090Z,2.70
2019-03-27T06:52:32.264Z,2.33
2019-03-27T06:55:02.554Z,2.30
2019-03-27T06:57:32.703Z,3.15
2019-03-27T07:00:02.874Z,2.10
2019-03-27T07:02:34.007Z,2.02
2019-03-27T07:05:04.460Z,1.70
2019-03-27T07:07:34.659Z,1.98
2019-03-27T07:10:05.534Z,2.98
2019-03-27T07:12:35.742Z,1.77
2019-03-27T07:15:06.911Z,1.50
2019-03-27T07:17:37.079Z,2.27
2019-03-27T07:20:08.144Z,2.55
2019-03-27T07:22:38.303Z,2.52
2019-03-27T07:25:08.827Z,1.65
2019-03-27T07:27:40.799Z,2.30
2019-03-27T07:30:11.583Z,1.85
2019-03-27T07:32:41.738Z,2.02
2019-03-27T07:35:17.796Z,3.22
2019-03-27T07:37:47.964Z,1.90
2019-03-27T07:40:20.621Z,2.17
2019-03-27T07:42:50.819Z,2.95
2019-03-27T07:45:20.988Z,1.35
2019-03-27T07:47:51.148Z,2.05
2019-03-27T07:50:21.307Z,1.20
2019-03-27T07:52:51.464Z,2.87
2019-03-27T07:55:21.699Z,1.47
2019-03-27T07:57:51.844Z,1.45
2019-03-27T08:00:25.059Z,1.30
2019-03-27T08:02:55.309Z,1.55
2019-03-27T08:05:25.558Z,2.90
2019-03-27T08:07:55.728Z,1.62
2019-03-27T08:10:25.949Z,2.08
2019-03-27T08:12:56.301Z,1.70
2019-03-27T08:15:26.448Z,2.25
2019-03-27T08:17:56.626Z,0.95
2019-03-27T08:20:26.801Z,0.95
2019-03-27T08:22:56.984Z,1.10
2019-03-27T08:25:27.231Z,1.60
2019-03-27T08:27:57.378Z,1.65
2019-03-27T08:30:27.661Z,1.40
2019-03-27T08:32:58.822Z,1.30
2019-03-27T08:35:29.022Z,1.50
2019-03-27T08:37:59.190Z,1.20
2019-03-27T08:40:29.470Z,2.15
2019-03-27T08:42:59.659Z,1.30
2019-03-27T08:45:29.808Z,1.20
2019-03-27T08:47:59.951Z,2.02
2019-03-27T08:50:32.753Z,2.22
2019-03-27T08:53:02.912Z,1.32
2019-03-27T08:55:33.732Z,2.02
2019-03-27T08:58:06.600Z,1.30
2019-03-27T09:00:47.392Z,1.55
2019-03-27T09:03:17.714Z,1.30
2019-03-27T09:05:49.104Z,1.98
2019-03-27T09:08:19.514Z,1.80
2019-03-27T09:10:51.688Z,1.47
2019-03-27T09:13:21.933Z,1.32
2019-03-27T09:15:53.116Z,2.35
2019-03-27T09:18:23.440Z,1.47
2019-03-27T09:20:53.623Z,1.22
2019-03-27T09:23:25.995Z,1.42
2019-03-27T09:25:56.221Z,1.55
2019-03-27T09:28:27.433Z,1.57
2019-03-27T09:30:57.683Z,1.35
2019-03-27T09:33:27.934Z,2.33
2019-03-27T09:35:58.422Z,2.47
2019-03-27T09:38:28.623Z,1.52
2019-03-27T09:40:58.796Z,2.67
2019-03-27T09:43:29.024Z,1.55
2019-03-27T09:46:01.951Z,2.12
2019-03-27T09:48:32.184Z,1.25
2019-03-27T09:51:02.363Z,1.35
2019-03-27T09:53:32.598Z,1.62
2019-03-27T09:56:02.740Z,2.20
2019-03-27T09:58:32.999Z,1.42
2019-03-27T10:01:07.611Z,1.42
2019-03-27T10:03:37.789Z,1.60
2019-03-27T10:06:08.034Z,1.35
2019-03-27T10:08:38.267Z,1.47
2019-03-27T10:11:11.174Z,1.22
2019-03-27T10:13:41.324Z,1.45
2019-03-27T10:16:11.468Z,1.30
2019-03-27T10:18:47.476Z,1.00
2019-03-27T10:21:17.186Z,1.45
2019-03-27T10:23:47.935Z,2.00
2019-03-27T10:26:19.258Z,1.20
2019-03-27T10:28:49.426Z,0.90
2019-03-27T10:31:20.975Z,2.02
2019-03-27T10:33:52.744Z,1.60
2019-03-27T10:36:22.899Z,2.30
2019-03-27T10:38:53.041Z,1.42
2019-03-27T10:41:23.241Z,1.55
2019-03-27T10:43:53.398Z,1.55
2019-03-27T10:46:25.763Z,1.65
2019-03-27T10:48:57.563Z,1.50
2019-03-27T10:51:27.746Z,1.72
2019-03-27T10:53:57.891Z,1.40
2019-03-27T10:56:28.035Z,1.52
2019-03-27T10:58:58.196Z,1.20
2019-03-27T11:01:30.372Z,2.05
2019-03-27T11:04:02.834Z,1.25
2019-03-27T11:06:33.042Z,1.00
2019-03-27T11:09:07.353Z,1.12
2019-03-27T11:11:37.757Z,1.27
2019-03-27T11:14:07.990Z,1.90
2019-03-27T11:16:38.137Z,2.10
2019-03-27T11:19:10.668Z,2.20
2019-03-27T11:21:40.835Z,1.70
2019-03-27T11:24:10.973Z,1.30
2019-03-27T11:26:42.680Z,1.47
2019-03-27T11:29:14.976Z,1.60
2019-03-27T11:31:46.780Z,1.40
2019-03-27T11:34:17.030Z,1.80
2019-03-27T11:37:06.254Z,1.50
2019-03-27T11:39:36.466Z,2.30
2019-03-27T11:42:06.679Z,1.62
2019-03-27T11:44:37.539Z,2.10
2019-03-27T11:47:07.715Z,1.87
2019-03-27T11:49:37.884Z,2.05
2019-03-27T11:52:08.061Z,2.17
2019-03-27T11:54:41.004Z,1.70
2019-03-27T11:57:11.239Z,1.20
2019-03-27T11:59:53.226Z,1.70
2019-03-27T12:02:13.266Z,2.05
2019-03-27T12:04:45.253Z,1.72
2019-03-27T12:07:15.411Z,1.60
2019-03-27T12:09:45.562Z,1.60
2019-03-27T12:12:15.726Z,2.12
2019-03-27T12:14:47.817Z,1.70
2019-03-27T12:17:17.978Z,2.17
2019-03-27T12:19:48.117Z,1.45
2019-03-27T12:22:19.536Z,2.27
2019-03-27T12:24:49.708Z,3.62
2019-03-27T12:27:19.876Z,1.52
2019-03-27T12:29:50.039Z,1.67
2019-03-27T12:32:20.211Z,2.17
2019-03-27T12:34:50.432Z,1.37
2019-03-27T12:37:23.663Z,1.85
2019-03-27T12:39:53.862Z,2.12
2019-03-27T12:42:24.012Z,2.45
2019-03-27T12:44:54.288Z,2.05
2019-03-27T12:47:24.482Z,2.55
2019-03-27T12:49:54.714Z,1.20
2019-03-27T12:52:26.777Z,1.50
2019-03-27T12:54:56.937Z,1.52
2019-03-27T12:57:27.190Z,2.33
2019-03-27T12:59:58.881Z,1.82
2019-03-27T13:02:29.108Z,1.57
2019-03-27T13:04:59.358Z,2.55
2019-03-27T13:07:31.951Z,1.55
2019-03-27T13:10:02.115Z,2.40
2019-03-27T13:12:32.263Z,1.75
2019-03-27T13:15:02.408Z,2.22
2019-03-27T13:17:34.451Z,1.85
2019-03-27T13:20:04.962Z,1.57
2019-03-27T13:22:38.094Z,1.80
2019-03-27T13:25:07.517Z,1.52
2019-03-27T13:27:37.694Z,1.72
2019-03-27T13:30:11.422Z,2.85
2019-03-27T13:32:41.732Z,1.40
2019-03-27T13:35:12.020Z,2.58
2019-03-27T13:37:42.275Z,1.60
2019-03-27T13:40:12.936Z,2.10
2019-03-27T13:42:43.127Z,1.47
2019-03-27T13:45:13.964Z,1.50
2019-03-27T13:47:44.294Z,1.85
2019-03-27T13:50:16.819Z,1.75
2019-03-27T13:52:47.322Z,1.90
2019-03-27T13:55:17.489Z,1.90
2019-03-27T13:57:47.707Z,1.98
2019-03-27T14:00:23.409Z,1.65
2019-03-27T14:02:53.715Z,1.75
2019-03-27T14:05:25.509Z,1.60
2019-03-27T14:07:55.839Z,1.75
2019-03-27T14:10:26.185Z,1.65
2019-03-27T14:12:56.363Z,1.70
2019-03-27T14:15:26.638Z,1.75
2019-03-27T14:17:56.898Z,1.75
2019-03-27T14:20:27.075Z,1.80
2019-03-27T14:22:57.299Z,1.67
2019-03-27T14:25:27.604Z,2.02
2019-03-27T14:27:57.763Z,2.27
2019-03-27T14:30:49.615Z,1.57
2019-03-27T14:33:21.553Z,1.42
2019-03-27T14:35:54.240Z,1.87
2019-03-27T14:38:24.617Z,1.50
2019-03-27T14:40:55.814Z,1.70
2019-03-27T14:43:27.374Z,1.57
2019-03-27T14:45:57.678Z,1.60
2019-03-27T14:48:30.984Z,3.30
2019-03-27T14:51:02.797Z,1.20
2019-03-27T14:53:35.504Z,1.65
2019-03-27T14:56:09.009Z,1.60
2019-03-27T14:58:39.191Z,1.72
2019-03-27T15:01:09.406Z,1.57
2019-03-27T15:03:42.328Z,1.55
2019-03-27T15:06:17.042Z,1.90
2019-03-27T15:08:48.581Z,2.22
2019-03-27T15:11:18.744Z,1.60
2019-03-27T15:13:51.673Z,1.95
2019-03-27T15:16:21.850Z,0.90
2019-03-27T15:18:52.693Z,1.62
2019-03-27T15:21:23.015Z,1.65
2019-03-27T15:23:53.235Z,2.12
2019-03-27T15:26:23.416Z,1.75
2019-03-27T15:28:53.585Z,1.45
2019-03-27T15:31:23.799Z,2.45
2019-03-27T15:33:56.597Z,2.45
2019-03-27T15:36:26.792Z,2.10
2019-03-27T15:38:56.953Z,2.52
2019-03-27T15:41:27.197Z,2.30
2019-03-27T15:43:57.378Z,1.40
2019-03-27T15:46:28.512Z,1.30
2019-03-27T15:48:58.663Z,2.25
2019-03-27T15:51:28.832Z,2.65
2019-03-27T15:53:59.233Z,1.65
2019-03-27T15:56:29.416Z,1.42
2019-03-27T15:58:59.795Z,2.40
2019-03-27T16:01:30.163Z,1.92
2019-03-27T16:04:00.368Z,1.60
2019-03-27T16:06:33.387Z,1.72
2019-03-27T16:09:04.489Z,1.20
2019-03-27T16:11:34.765Z,1.25
2019-03-27T16:14:05.028Z,3.30
2019-03-27T16:16:35.244Z,1.98
2019-03-27T16:19:05.566Z,1.60
2019-03-27T16:21:37.672Z,1.62
2019-03-27T16:24:10.039Z,1.57
2019-03-27T16:26:40.245Z,1.77
2019-03-27T16:29:10.810Z,1.75
2019-03-27T16:31:41.088Z,1.60
2019-03-27T16:34:14.029Z,1.15
2019-03-27T16:36:44.276Z,1.47
2019-03-27T16:39:14.441Z,1.40
2019-03-27T16:41:44.632Z,1.92
2019-03-27T16:44:14.862Z,2.80
2019-03-27T16:46:45.765Z,1.37
2019-03-27T16:49:16.050Z,1.67
2019-03-27T16:51:46.260Z,1.62
2019-03-27T16:54:18.256Z,2.55
2019-03-27T16:56:49.276Z,2.22
2019-03-27T16:59:23.470Z,2.40
2019-03-27T17:01:54.046Z,1.95
2019-03-27T17:04:24.283Z,1.87
2019-03-27T17:06:56.122Z,1.70
2019-03-27T17:09:30.519Z,1.35
2019-03-27T17:12:00.668Z,1.75
2019-03-27T17:14:30.900Z,2.55
2019-03-27T17:17:01.159Z,2.40
2019-03-27T17:19:31.338Z,3.77
2019-03-27T17:22:01.505Z,6.55
2019-03-27T17:24:31.793Z,8.95
2019-03-27T17:27:04.811Z,6.85
2019-03-27T17:29:34.976Z,5.47
2019-03-27T17:32:06.248Z,4.45
2019-03-27T17:34:36.458Z,6.40
2019-03-27T17:37:06.714Z,3.83
2019-03-27T17:39:37.938Z,5.25
2019-03-27T17:42:08.533Z,4.45
2019-03-27T17:44:38.767Z,3.47
2019-03-27T17:47:09.054Z,3.27
2019-03-27T17:49:39.923Z,3.60
2019-03-27T17:52:10.203Z,3.45
2019-03-27T17:54:40.492Z,3.20
2019-03-27T17:57:12.879Z,3.35
2019-03-27T17:59:44.797Z,3.72
2019-03-27T18:02:16.044Z,3.62
2019-03-27T18:04:46.187Z,3.10
2019-03-27T18:07:17.532Z,3.37
2019-03-27T18:09:47.700Z,4.95
2019-03-27T18:12:17.990Z,3.22
2019-03-27T18:14:48.148Z,3.90
2019-03-27T18:17:18.395Z,2.95
2019-03-27T18:19:48.688Z,4.15
2019-03-27T18:22:18.956Z,4.00
2019-03-27T18:24:49.114Z,2.20
2019-03-27T18:27:19.356Z,3.37
2019-03-27T18:29:49.758Z,4.00
2019-03-27T18:32:27.728Z,2.87
2019-03-27T18:34:58.078Z,3.65
2019-03-27T18:37:34.841Z,3.37
2019-03-27T18:40:06.568Z,3.67
2019-03-27T18:42:38.094Z,3.33
2019-03-27T18:45:09.190Z,3.75
2019-03-27T18:47:39.414Z,3.15
2019-03-27T18:50:09.868Z,3.47
2019-03-27T18:52:40.052Z,2.85
2019-03-27T18:55:25.794Z,3.05
2019-03-27T18:57:59.312Z,2.77
2019-03-27T19:00:19.847Z,2.90
2019-03-27T19:02:50.024Z,2.47
2019-03-27T19:05:23.180Z,3.77
2019-03-27T19:07:53.314Z,2.50
2019-03-27T19:10:23.632Z,3.92
2019-03-27T19:12:53.765Z,3.17
2019-03-27T19:15:23.973Z,2.50
2019-03-27T19:17:54.129Z,3.00
2019-03-27T19:20:24.911Z,3.85
2019-03-27T19:22:55.063Z,2.10
2019-03-27T19:25:25.310Z,4.40
2019-03-27T19:28:00.594Z,3.90
2019-03-27T19:30:30.880Z,3.60
2019-03-27T19:33:01.013Z,6.42
2019-03-27T19:35:31.420Z,2.90
2019-03-27T19:38:01.659Z,3.72
2019-03-27T19:40:31.877Z,3.45
2019-03-27T19:43:02.146Z,3.83
2019-03-27T19:45:33.424Z,3.45
2019-03-27T19:48:03.631Z,3.90
2019-03-27T19:50:33.768Z,4.15
2019-03-27T19:53:04.010Z,3.52
2019-03-27T19:55:35.350Z,4.17
2019-03-27T19:58:05.640Z,3.58
2019-03-27T20:00:35.975Z,3.30
2019-03-27T20:03:06.185Z,3.83
2019-03-27T20:05:36.466Z,3.70
2019-03-27T20:08:11.249Z,4.40
2019-03-27T20:10:41.627Z,3.05
2019-03-27T20:13:11.775Z,3.70
2019-03-27T20:15:43.509Z,3.77
2019-03-27T20:18:15.464Z,4.30
2019-03-27T20:21:10.020Z,3.20
2019-03-27T20:23:42.298Z,3.08
2019-03-27T20:26:12.462Z,3.35
2019-03-27T20:28:42.647Z,2.87
2019-03-27T20:31:12.843Z,3.92
2019-03-27T20:33:42.999Z,3.90
2019-03-27T20:36:13.324Z,3.77
2019-03-27T20:38:45.705Z,5.17
2019-03-27T20:41:17.281Z,4.08
2019-03-27T20:43:51.150Z,4.15
2019-03-27T20:46:25.448Z,3.55
2019-03-27T20:48:53.225Z,3.60
2019-03-27T20:51:23.407Z,4.92
2019-03-27T20:53:53.552Z,3.70
2019-03-27T20:56:23.688Z,2.58
2019-03-27T20:58:56.519Z,3.42
2019-03-27T21:01:30.967Z,4.60
2019-03-27T21:04:01.938Z,2.90
2019-03-27T21:06:32.188Z,4.67
2019-03-27T21:09:02.422Z,2.58
2019-03-27T21:11:38.592Z,2.87
2019-03-27T21:14:08.762Z,3.42
2019-03-27T21:16:41.062Z,3.60
2019-03-27T21:19:12.296Z,3.47
2019-03-27T21:21:42.539Z,2.95
2019-03-27T21:24:15.596Z,2.83
2019-03-27T21:26:45.836Z,2.85
2019-03-27T21:29:16.045Z,3.60
2019-03-27T21:31:51.356Z,2.70
2019-03-27T21:34:21.584Z,3.42
2019-03-27T21:36:51.816Z,4.08
2019-03-27T21:39:22.279Z,4.58
2019-03-27T21:41:52.484Z,3.60
2019-03-27T21:44:22.814Z,2.72
2019-03-27T21:46:53.078Z,2.15
2019-03-27T21:49:23.409Z,3.40
2019-03-27T21:51:53.622Z,3.40
2019-03-27T21:54:23.931Z,2.65
2019-03-27T21:56:54.201Z,3.55
2019-03-27T21:59:25.553Z,3.80
2019-03-27T22:01:55.826Z,3.98
2019-03-27T22:04:27.138Z,6.17
2019-03-27T22:06:58.791Z,4.20
2019-03-27T22:09:29.111Z,4.22
2019-03-27T22:11:59.399Z,4.05
2019-03-27T22:14:29.692Z,3.12
2019-03-27T22:17:01.644Z,4.60
2019-03-27T22:19:31.850Z,3.72
2019-03-27T22:22:02.072Z,4.40
2019-03-27T22:24:32.357Z,3.62
2019-03-27T22:27:02.632Z,4.70
2019-03-27T22:29:32.877Z,3.83
2019-03-27T22:32:03.093Z,2.25
2019-03-27T22:34:33.376Z,4.87
2019-03-27T22:37:03.580Z,3.60
2019-03-27T22:39:33.778Z,3.35
2019-03-27T22:42:22.983Z,4.58
2019-03-27T22:44:53.462Z,4.12
2019-03-27T22:47:23.883Z,3.77
2019-03-27T22:49:56.281Z,3.80
2019-03-27T22:52:26.640Z,3.98
2019-03-27T22:54:56.929Z,3.40
2019-03-27T22:57:27.119Z,4.92
2019-03-27T22:59:57.316Z,3.83
2019-03-27T23:02:27.641Z,4.33
2019-03-27T23:04:57.850Z,4.42
2019-03-27T23:07:28.063Z,4.10
2019-03-27T23:10:00.868Z,3.58
2019-03-27T23:12:51.052Z,5.20
2019-03-27T23:15:23.635Z,4.03
2019-03-27T23:17:58.430Z,2.85
2019-03-27T23:20:31.106Z,4.62
2019-03-27T23:23:01.294Z,3.90
2019-03-27T23:25:31.561Z,5.42
2019-03-27T23:28:01.826Z,3.85
2019-03-27T23:30:32.010Z,4.35
2019-03-27T23:33:02.216Z,3.92
2019-03-27T23:35:32.565Z,3.50
2019-03-27T23:38:02.844Z,4.22
2019-03-27T23:40:33.047Z,6.00
2019-03-27T23:43:05.915Z,3.87
2019-03-27T23:45:36.129Z,4.40
2019-03-27T23:48:06.339Z,4.28
2019-03-27T23:50:36.544Z,4.70
2019-03-27T23:53:06.850Z,4.42
2019-03-27T23:55:38.805Z,5.55
2019-03-27T23:58:09.076Z,3.90
